createdAt,value
2016-05-10T00:00:15.174Z,1004.59
2016-05-10T00:01:15.144Z,1004.61
2016-05-10T00:02:15.147Z,1004.61
2016-05-10T00:03:15.354Z,1004.56
2016-05-10T00:04:15.122Z,1004.6
2016-05-10T00:05:15.171Z,1004.6
2016-05-10T00:06:15.030Z,1004.6
2016-05-10T00:07:15.033Z,1004.6
2016-05-10T00:08:15.021Z,1004.64
2016-05-10T00:09:15.007Z,1004.63
2016-05-10T00:10:14.963Z,1004.55
2016-05-10T00:11:15.060Z,1004.58
2016-05-10T00:12:15.141Z,1004.56
2016-05-10T00:13:14.967Z,1004.55
2016-05-10T00:14:14.964Z,1004.49
2016-05-10T00:15:14.993Z,1004.54
2016-05-10T00:16:15.005Z,1004.53
2016-05-10T00:17:15.049Z,1004.51
2016-05-10T00:18:15.028Z,1004.51
2016-05-10T00:19:15.045Z,1004.57
2016-05-10T00:20:18.065Z,1004.54
2016-05-10T00:21:15.034Z,1004.54
2016-05-10T00:22:15.254Z,1004.54
2016-05-10T00:23:15.015Z,1004.52
2016-05-10T00:24:14.991Z,1004.53
2016-05-10T00:25:14.985Z,1004.53
2016-05-10T00:26:14.992Z,1004.51
2016-05-10T00:27:14.969Z,1004.52
2016-05-10T00:28:14.928Z,1004.48
2016-05-10T00:29:14.917Z,1004.45
2016-05-10T00:30:14.906Z,1004.48
2016-05-10T00:31:15.207Z,1004.48
2016-05-10T00:32:14.915Z,1004.44
2016-05-10T00:33:14.872Z,1004.46
2016-05-10T00:34:15.766Z,1004.43
2016-05-10T00:35:15.207Z,1004.43
2016-05-10T00:36:15.101Z,1004.43
2016-05-10T00:37:14.761Z,1004.42
2016-05-10T00:38:14.748Z,1004.41
2016-05-10T00:39:14.736Z,1004.39
2016-05-10T00:40:14.770Z,1004.4
2016-05-10T00:41:14.710Z,1004.39
2016-05-10T00:42:14.901Z,1004.36
2016-05-10T00:43:14.669Z,1004.33
2016-05-10T00:44:14.797Z,1004.35
2016-05-10T00:45:14.612Z,1004.34
2016-05-10T00:46:14.600Z,1004.35
2016-05-10T00:47:14.586Z,1004.31
2016-05-10T00:48:14.543Z,1004.34
2016-05-10T00:49:14.530Z,1004.3
2016-05-10T00:50:14.532Z,1004.31
2016-05-10T00:51:14.519Z,1004.29
2016-05-10T00:52:14.490Z,1004.25
2016-05-10T00:53:14.493Z,1004.28
2016-05-10T00:54:14.559Z,1004.24
2016-05-10T00:55:14.421Z,1004.26
2016-05-10T00:56:14.393Z,1004.24
2016-05-10T00:57:14.379Z,1004.25
2016-05-10T00:58:14.585Z,1004.22
2016-05-10T00:59:14.353Z,1004.2
2016-05-10T01:00:14.325Z,1004.23
2016-05-10T01:01:14.312Z,1004.18
2016-05-10T01:02:14.283Z,1004.16
2016-05-10T01:03:14.286Z,1004.17
2016-05-10T01:04:14.351Z,1004.15
2016-05-10T01:05:14.214Z,1004.12
2016-05-10T01:06:14.294Z,1004.16
2016-05-10T01:07:14.203Z,1004.13
2016-05-10T01:08:14.159Z,1004.12
2016-05-10T01:09:14.192Z,1004.11
2016-05-10T01:10:14.148Z,1004.04
2016-05-10T01:11:14.120Z,1004.06
2016-05-10T01:12:14.107Z,1004.07
2016-05-10T01:13:14.078Z,1004.08
2016-05-10T01:14:14.066Z,1004.06
2016-05-10T01:15:14.053Z,1004.06
2016-05-10T01:16:14.086Z,1004.06
2016-05-10T01:17:14.011Z,1004.06
2016-05-10T01:18:13.967Z,1004.03
2016-05-10T01:19:13.969Z,1004.04
2016-05-10T01:20:13.941Z,1004.01
2016-05-10T01:21:13.913Z,1004.06
2016-05-10T01:22:13.899Z,1004.04
2016-05-10T01:23:13.887Z,1003.99
2016-05-10T01:24:13.858Z,1004.04
2016-05-10T01:25:13.846Z,1004.03
2016-05-10T01:26:13.832Z,1004.02
2016-05-10T01:27:13.804Z,1004.05
2016-05-10T01:28:13.790Z,1004.01
2016-05-10T01:29:13.762Z,1004.01
2016-05-10T01:30:13.749Z,1004
2016-05-10T01:31:13.720Z,1003.97
2016-05-10T01:32:13.707Z,1003.99
2016-05-10T01:33:13.726Z,1004
2016-05-10T01:34:13.667Z,1003.95
2016-05-10T01:35:13.794Z,1003.96
2016-05-10T01:36:13.640Z,1003.95
2016-05-10T01:37:13.925Z,1003.92
2016-05-10T01:38:13.723Z,1003.93
2016-05-10T01:39:13.601Z,1003.9
2016-05-10T01:40:13.839Z,1003.87
2016-05-10T01:41:13.529Z,1003.89
2016-05-10T01:42:13.500Z,1003.88
2016-05-10T01:43:13.487Z,1003.83
2016-05-10T01:44:13.458Z,1003.81
2016-05-10T01:45:13.430Z,1003.81
2016-05-10T01:46:13.730Z,1003.8
2016-05-10T01:47:13.405Z,1003.79
2016-05-10T01:48:13.439Z,1003.79
2016-05-10T01:49:13.363Z,1003.77
2016-05-10T01:50:13.349Z,1003.8
2016-05-10T01:51:13.321Z,1003.76
2016-05-10T01:52:13.308Z,1003.79
2016-05-10T01:53:13.264Z,1003.79
2016-05-10T01:54:13.252Z,1003.78
2016-05-10T01:55:13.238Z,1003.79
2016-05-10T01:56:13.210Z,1003.77
2016-05-10T01:57:13.212Z,1003.79
2016-05-10T01:58:13.169Z,1003.8
2016-05-10T01:59:13.265Z,1003.72
2016-05-10T02:00:13.127Z,1003.7
2016-05-10T02:01:13.145Z,1003.72
2016-05-10T02:02:13.085Z,1003.78
2016-05-10T02:03:13.087Z,1003.76
2016-05-10T02:04:13.153Z,1003.71
2016-05-10T02:05:13.140Z,1003.74
2016-05-10T02:06:13.003Z,1003.71
2016-05-10T02:07:13.193Z,1003.72
2016-05-10T02:08:12.961Z,1003.7
2016-05-10T02:09:12.963Z,1003.69
2016-05-10T02:10:12.919Z,1003.66
2016-05-10T02:11:12.922Z,1003.63
2016-05-10T02:12:12.894Z,1003.65
2016-05-10T02:13:12.881Z,1003.62
2016-05-10T02:14:13.242Z,1003.61
2016-05-10T02:15:12.839Z,1003.62
2016-05-10T02:16:12.810Z,1003.6
2016-05-10T02:17:12.797Z,1003.58
2016-05-10T02:18:12.785Z,1003.6
2016-05-10T02:19:12.741Z,1003.57
2016-05-10T02:20:13.227Z,1003.56
2016-05-10T02:21:12.886Z,1003.56
2016-05-10T02:22:12.749Z,1003.52
2016-05-10T02:23:13.001Z,1003.53
2016-05-10T02:24:12.676Z,1003.54
2016-05-10T02:25:12.632Z,1003.48
2016-05-10T02:26:12.619Z,1003.47
2016-05-10T02:27:12.574Z,1003.48
2016-05-10T02:28:12.827Z,1003.45
2016-05-10T02:29:12.565Z,1003.46
2016-05-10T02:30:12.520Z,1003.49
2016-05-10T02:31:12.554Z,1003.44
2016-05-10T02:32:12.540Z,1003.45
2016-05-10T02:33:12.496Z,1003.46
2016-05-10T02:34:12.687Z,1003.46
2016-05-10T02:35:12.440Z,1003.42
2016-05-10T02:36:12.474Z,1003.45
2016-05-10T02:37:12.382Z,1003.43
2016-05-10T02:38:12.384Z,1003.42
2016-05-10T02:39:12.356Z,1003.4
2016-05-10T02:40:12.609Z,1003.39
2016-05-10T02:41:12.315Z,1003.39
2016-05-10T02:42:12.287Z,1003.39
2016-05-10T02:43:12.273Z,1003.38
2016-05-10T02:44:12.245Z,1003.39
2016-05-10T02:45:12.247Z,1003.37
2016-05-10T02:46:12.220Z,1003.36
2016-05-10T02:47:12.347Z,1003.37
2016-05-10T02:48:12.193Z,1003.34
2016-05-10T02:49:12.165Z,1003.32
2016-05-10T02:50:12.136Z,1003.29
2016-05-10T02:51:12.107Z,1003.3
2016-05-10T02:52:12.095Z,1003.26
2016-05-10T02:53:12.082Z,1003.25
2016-05-10T02:54:12.053Z,1003.2
2016-05-10T02:55:12.041Z,1003.24
2016-05-10T02:56:12.027Z,1003.24
2016-05-10T02:57:11.999Z,1003.22
2016-05-10T02:58:11.970Z,1003.22
2016-05-10T02:59:12.566Z,1003.2
2016-05-10T03:00:11.929Z,1003.23
2016-05-10T03:01:11.946Z,1003.23
2016-05-10T03:02:11.888Z,1003.21
2016-05-10T03:03:11.890Z,1003.21
2016-05-10T03:04:11.877Z,1003.24
2016-05-10T03:05:11.817Z,1003.18
2016-05-10T03:06:11.820Z,1003.19
2016-05-10T03:07:11.792Z,1003.19
2016-05-10T03:08:12.122Z,1003.19
2016-05-10T03:09:11.765Z,1003.19
2016-05-10T03:10:11.737Z,1003.21
2016-05-10T03:11:11.770Z,1003.18
2016-05-10T03:12:11.711Z,1003.19
2016-05-10T03:13:11.683Z,1003.15
2016-05-10T03:14:11.795Z,1003.17
2016-05-10T03:15:11.781Z,1003.16
2016-05-10T03:16:11.628Z,1003.14
2016-05-10T03:17:11.599Z,1003.18
2016-05-10T03:18:11.556Z,1003.18
2016-05-10T03:19:11.558Z,1003.12
2016-05-10T03:20:11.544Z,1003.15
2016-05-10T03:21:11.658Z,1003.17
2016-05-10T03:22:11.566Z,1003.15
2016-05-10T03:23:11.490Z,1003.12
2016-05-10T03:24:11.462Z,1003.13
2016-05-10T03:25:11.449Z,1003.06
2016-05-10T03:26:11.483Z,1003.1
2016-05-10T03:27:11.517Z,1003.13
2016-05-10T03:28:11.379Z,1003.13
2016-05-10T03:29:11.351Z,1003.08
2016-05-10T03:30:11.338Z,1003.08
2016-05-10T03:31:11.324Z,1003.15
2016-05-10T03:32:11.296Z,1003.15
2016-05-10T03:33:11.330Z,1003.11
2016-05-10T03:34:11.270Z,1003.13
2016-05-10T03:35:11.226Z,1003.14
2016-05-10T03:36:11.198Z,1003.14
2016-05-10T03:37:11.450Z,1003.12
2016-05-10T03:38:11.251Z,1003.12
2016-05-10T03:39:11.142Z,1003.13
2016-05-10T03:40:11.161Z,1003.13
2016-05-10T03:41:11.117Z,1003.13
2016-05-10T03:42:11.167Z,1003.14
2016-05-10T03:43:11.060Z,1003.13
2016-05-10T03:44:11.047Z,1003.1
2016-05-10T03:45:11.034Z,1003.14
2016-05-10T03:46:11.006Z,1003.08
2016-05-10T03:47:11.008Z,1003.08
2016-05-10T03:48:10.980Z,1003.08
2016-05-10T03:49:10.967Z,1003.05
2016-05-10T03:50:10.939Z,1003.08
2016-05-10T03:51:10.910Z,1003.04
2016-05-10T03:52:10.880Z,1003.06
2016-05-10T03:53:10.883Z,1003.06
2016-05-10T03:54:10.855Z,1003.01
2016-05-10T03:55:10.842Z,1003.02
2016-05-10T03:56:10.845Z,1003.05
2016-05-10T03:57:10.802Z,1003.01
2016-05-10T03:58:10.772Z,1003.04
2016-05-10T03:59:10.962Z,1003.01
2016-05-10T04:00:10.715Z,1003
2016-05-10T04:01:10.702Z,1002.96
2016-05-10T04:02:10.690Z,1002.98
2016-05-10T04:03:10.863Z,1002.96
2016-05-10T04:04:10.663Z,1002.99
2016-05-10T04:05:10.618Z,1002.99
2016-05-10T04:06:10.606Z,1002.96
2016-05-10T04:07:10.578Z,1003.01
2016-05-10T04:08:10.565Z,1002.99
2016-05-10T04:09:10.568Z,1002.98
2016-05-10T04:10:10.539Z,1002.94
2016-05-10T04:11:10.557Z,1002.99
2016-05-10T04:12:10.482Z,1002.95
2016-05-10T04:13:10.469Z,1002.92
2016-05-10T04:14:10.472Z,1002.92
2016-05-10T04:15:10.443Z,1002.93
2016-05-10T04:16:10.508Z,1002.9
2016-05-10T04:17:10.401Z,1002.87
2016-05-10T04:18:10.436Z,1002.88
2016-05-10T04:19:10.344Z,1002.84
2016-05-10T04:20:10.316Z,1002.87
2016-05-10T04:21:10.302Z,1002.87
2016-05-10T04:22:10.289Z,1002.87
2016-05-10T04:23:10.480Z,1002.85
2016-05-10T04:24:10.264Z,1002.82
2016-05-10T04:25:10.220Z,1002.85
2016-05-10T04:26:10.208Z,1002.85
2016-05-10T04:27:10.178Z,1002.85
2016-05-10T04:28:10.196Z,1002.82
2016-05-10T04:29:10.137Z,1002.84
2016-05-10T04:30:10.140Z,1002.83
2016-05-10T04:31:10.096Z,1002.81
2016-05-10T04:32:10.083Z,1002.82
2016-05-10T04:33:10.069Z,1002.85
2016-05-10T04:34:10.040Z,1002.84
2016-05-10T04:35:10.029Z,1002.84
2016-05-10T04:36:10.062Z,1002.85
2016-05-10T04:37:10.018Z,1002.84
2016-05-10T04:38:09.958Z,1002.84
2016-05-10T04:39:09.976Z,1002.85
2016-05-10T04:40:09.932Z,1002.8
2016-05-10T04:41:09.934Z,1002.79
2016-05-10T04:42:09.890Z,1002.82
2016-05-10T04:43:09.862Z,1002.79
2016-05-10T04:44:09.865Z,1002.81
2016-05-10T04:45:09.806Z,1002.78
2016-05-10T04:46:09.823Z,1002.77
2016-05-10T04:47:09.794Z,1002.81
2016-05-10T04:49:09.753Z,1002.83
2016-05-10T04:50:09.709Z,1002.82
2016-05-10T04:51:09.697Z,1002.82
2016-05-10T04:52:09.683Z,1002.82
2016-05-10T04:53:09.669Z,1002.82
2016-05-10T04:54:09.641Z,1002.85
2016-05-10T04:55:09.644Z,1002.82
2016-05-10T04:56:09.600Z,1002.86
2016-05-10T04:57:09.571Z,1002.83
2016-05-10T04:58:09.559Z,1002.83
2016-05-10T04:59:09.530Z,1002.84
2016-05-10T05:00:09.517Z,1002.84
2016-05-10T05:01:09.489Z,1002.84
2016-05-10T05:02:09.507Z,1002.84
2016-05-10T05:03:09.494Z,1002.85
2016-05-10T05:04:09.449Z,1002.84
2016-05-10T05:05:09.421Z,1002.83
2016-05-10T05:06:09.408Z,1002.85
2016-05-10T05:07:09.379Z,1002.83
2016-05-10T05:08:09.367Z,1002.8
2016-05-10T05:09:09.338Z,1002.78
2016-05-10T05:10:09.325Z,1002.79
2016-05-10T05:11:09.313Z,1002.81
2016-05-10T05:12:09.284Z,1002.8
2016-05-10T05:13:09.255Z,1002.81
2016-05-10T05:14:09.243Z,1002.8
2016-05-10T05:15:09.214Z,1002.82
2016-05-10T05:16:09.184Z,1002.79
2016-05-10T05:17:09.188Z,1002.78
2016-05-10T05:18:09.144Z,1002.8
2016-05-10T05:19:09.147Z,1002.8
2016-05-10T05:20:09.117Z,1002.81
2016-05-10T05:21:09.105Z,1002.84
2016-05-10T05:22:09.201Z,1002.77
2016-05-10T05:23:09.063Z,1002.79
2016-05-10T05:24:09.269Z,1002.79
2016-05-10T05:25:09.022Z,1002.77
2016-05-10T05:26:08.994Z,1002.8
2016-05-10T05:27:08.964Z,1002.74
2016-05-10T05:28:08.952Z,1002.76
2016-05-10T05:29:09.860Z,1002.75
2016-05-10T05:30:08.910Z,1002.71
2016-05-10T05:31:08.929Z,1002.74
2016-05-10T05:32:08.884Z,1002.72
2016-05-10T05:33:08.841Z,1002.71
2016-05-10T05:34:08.844Z,1002.7
2016-05-10T05:35:08.830Z,1002.67
2016-05-10T05:36:08.785Z,1002.68
2016-05-10T05:37:08.773Z,1002.62
2016-05-10T05:38:08.744Z,1002.62
2016-05-10T05:39:08.746Z,1002.61
2016-05-10T05:40:08.734Z,1002.59
2016-05-10T05:41:08.706Z,1002.62
2016-05-10T05:42:08.662Z,1002.62
2016-05-10T05:43:08.664Z,1002.62
2016-05-10T05:44:08.651Z,1002.6
2016-05-10T05:45:08.638Z,1002.63
2016-05-10T05:46:08.765Z,1002.63
2016-05-10T05:47:08.581Z,1002.65
2016-05-10T05:48:08.537Z,1002.59
2016-05-10T05:49:08.586Z,1002.62
2016-05-10T05:50:08.527Z,1002.62
2016-05-10T05:51:08.514Z,1002.62
2016-05-10T05:52:08.485Z,1002.58
2016-05-10T05:53:08.488Z,1002.62
2016-05-10T05:54:08.475Z,1002.59
2016-05-10T05:55:08.414Z,1002.63
2016-05-10T05:56:08.402Z,1002.62
2016-05-10T05:57:08.389Z,1002.58
2016-05-10T05:58:08.360Z,1002.61
2016-05-10T05:59:08.347Z,1002.61
2016-05-10T06:00:08.335Z,1002.63
2016-05-10T06:01:08.416Z,1002.55
2016-05-10T06:02:08.371Z,1002.55
2016-05-10T06:03:08.265Z,1002.58
2016-05-10T06:04:08.252Z,1002.55
2016-05-10T06:05:08.239Z,1002.56
2016-05-10T06:06:08.210Z,1002.55
2016-05-10T06:07:08.182Z,1002.57
2016-05-10T06:08:08.169Z,1002.58
2016-05-10T06:09:08.141Z,1002.53
2016-05-10T06:10:08.126Z,1002.57
2016-05-10T06:11:08.098Z,1002.54
2016-05-10T06:12:08.085Z,1002.57
2016-05-10T06:13:08.057Z,1002.5
2016-05-10T06:14:08.076Z,1002.53
2016-05-10T06:15:08.016Z,1002.49
2016-05-10T06:16:08.003Z,1002.5
2016-05-10T06:17:07.989Z,1002.48
2016-05-10T06:18:07.961Z,1002.49
2016-05-10T06:19:08.089Z,1002.5
2016-05-10T06:20:08.498Z,1002.5
2016-05-10T06:21:07.907Z,1002.5
2016-05-10T06:22:07.895Z,1002.51
2016-05-10T06:23:07.928Z,1002.5
2016-05-10T06:24:07.853Z,1002.57
2016-05-10T06:25:07.824Z,1002.54
2016-05-10T06:26:07.811Z,1002.53
2016-05-10T06:27:07.797Z,1002.54
2016-05-10T06:28:07.926Z,1002.55
2016-05-10T06:29:07.741Z,1002.55
2016-05-10T06:30:07.744Z,1002.55
2016-05-10T06:31:07.777Z,1002.55
2016-05-10T06:32:07.703Z,1002.54
2016-05-10T06:33:07.798Z,1002.54
2016-05-10T06:34:08.019Z,1002.56
2016-05-10T06:35:07.632Z,1002.56
2016-05-10T06:36:07.635Z,1002.54
2016-05-10T06:37:07.637Z,1002.54
2016-05-10T06:38:07.578Z,1002.54
2016-05-10T06:39:07.580Z,1002.57
2016-05-10T06:40:07.785Z,1002.56
2016-05-10T06:41:07.507Z,1002.52
2016-05-10T06:42:07.495Z,1002.55
2016-05-10T06:43:07.482Z,1002.55
2016-05-10T06:44:07.469Z,1002.56
2016-05-10T06:45:07.534Z,1002.54
2016-05-10T06:46:07.427Z,1002.6
2016-05-10T06:47:07.868Z,1002.57
2016-05-10T06:48:07.370Z,1002.55
2016-05-10T06:49:07.467Z,1002.58
2016-05-10T06:50:07.345Z,1002.59
2016-05-10T06:51:07.315Z,1002.59
2016-05-10T06:52:07.303Z,1002.6
2016-05-10T06:53:07.290Z,1002.61
2016-05-10T06:54:07.293Z,1002.61
2016-05-10T06:55:07.248Z,1002.61
2016-05-10T06:56:07.250Z,1002.59
2016-05-10T06:57:07.206Z,1002.61
2016-05-10T06:58:07.225Z,1002.6
2016-05-10T06:59:07.166Z,1002.6
2016-05-10T07:00:07.246Z,1002.6
2016-05-10T07:01:07.139Z,1002.6
2016-05-10T07:02:07.094Z,1002.59
2016-05-10T07:03:07.098Z,1002.6
2016-05-10T07:04:07.069Z,1002.6
2016-05-10T07:05:07.057Z,1002.59
2016-05-10T07:06:07.027Z,1002.62
2016-05-10T07:07:07.030Z,1002.61
2016-05-10T07:08:06.986Z,1002.56
2016-05-10T07:09:06.988Z,1002.58
2016-05-10T07:10:06.961Z,1002.6
2016-05-10T07:11:07.104Z,1002.55
2016-05-10T07:12:06.934Z,1002.62
2016-05-10T07:13:06.906Z,1002.62
2016-05-10T07:14:06.877Z,1002.56
2016-05-10T07:15:06.849Z,1002.58
2016-05-10T07:16:06.852Z,1002.54
2016-05-10T07:17:06.823Z,1002.57
2016-05-10T07:18:06.795Z,1002.56
2016-05-10T07:19:06.781Z,1002.59
2016-05-10T07:20:06.801Z,1002.54
2016-05-10T07:21:06.756Z,1002.51
2016-05-10T07:22:06.742Z,1002.54
2016-05-10T07:23:06.823Z,1002.52
2016-05-10T07:24:06.779Z,1002.53
2016-05-10T07:25:06.673Z,1002.54
2016-05-10T07:26:06.645Z,1002.56
2016-05-10T07:27:06.631Z,1002.54
2016-05-10T07:28:06.619Z,1002.56
2016-05-10T07:29:06.589Z,1002.55
2016-05-10T07:30:06.577Z,1002.53
2016-05-10T07:31:06.579Z,1002.55
2016-05-10T07:32:06.550Z,1002.55
2016-05-10T07:33:06.678Z,1002.58
2016-05-10T07:34:06.510Z,1002.58
2016-05-10T07:35:06.481Z,1002.57
2016-05-10T07:36:06.577Z,1002.6
2016-05-10T07:37:06.861Z,1002.56
2016-05-10T07:38:06.473Z,1002.58
2016-05-10T07:39:06.413Z,1002.54
2016-05-10T07:40:06.401Z,1002.58
2016-05-10T07:41:06.403Z,1002.55
2016-05-10T07:42:06.343Z,1002.55
2016-05-10T07:43:06.330Z,1002.55
2016-05-10T07:44:06.318Z,1002.56
2016-05-10T07:45:06.305Z,1002.55
2016-05-10T07:46:06.307Z,1002.57
2016-05-10T07:47:06.248Z,1002.59
2016-05-10T07:48:06.265Z,1002.58
2016-05-10T07:49:06.221Z,1002.61
2016-05-10T07:50:06.209Z,1002.61
2016-05-10T07:51:06.196Z,1002.59
2016-05-10T07:52:06.167Z,1002.6
2016-05-10T07:53:06.154Z,1002.58
2016-05-10T07:54:06.126Z,1002.58
2016-05-10T07:55:06.317Z,1002.57
2016-05-10T07:56:06.100Z,1002.59
2016-05-10T07:57:06.087Z,1002.6
2016-05-10T07:58:06.105Z,1002.58
2016-05-10T07:59:06.373Z,1002.62
2016-05-10T08:00:06.048Z,1002.58
2016-05-10T08:01:06.003Z,1002.58
2016-05-10T08:02:06.131Z,1002.62
2016-05-10T08:03:06.072Z,1002.61
2016-05-10T08:04:05.933Z,1002.62
2016-05-10T08:05:05.936Z,1002.6
2016-05-10T08:06:05.924Z,1002.58
2016-05-10T08:07:05.958Z,1002.61
2016-05-10T08:08:06.241Z,1002.62
2016-05-10T08:09:05.869Z,1002.59
2016-05-10T08:10:05.841Z,1002.6
2016-05-10T08:11:05.812Z,1002.59
2016-05-10T08:12:05.799Z,1002.57
2016-05-10T08:13:05.786Z,1002.56
2016-05-10T08:14:05.773Z,1002.59
2016-05-10T08:15:05.885Z,1002.55
2016-05-10T08:16:05.732Z,1002.52
2016-05-10T08:17:05.718Z,1002.53
2016-05-10T08:18:05.690Z,1002.5
2016-05-10T08:19:05.662Z,1002.54
2016-05-10T08:20:05.665Z,1002.51
2016-05-10T08:21:05.667Z,1002.53
2016-05-10T08:22:05.623Z,1002.55
2016-05-10T08:23:05.610Z,1002.54
2016-05-10T08:24:05.598Z,1002.52
2016-05-10T08:25:05.568Z,1002.55
2016-05-10T08:26:05.555Z,1002.55
2016-05-10T08:27:05.589Z,1002.53
2016-05-10T08:28:05.530Z,1002.55
2016-05-10T08:29:05.501Z,1002.56
2016-05-10T08:30:06.660Z,1002.56
2016-05-10T08:31:05.459Z,1002.56
2016-05-10T08:33:05.777Z,1002.56
2016-05-10T08:34:05.390Z,1002.54
2016-05-10T08:35:05.377Z,1002.55
2016-05-10T08:36:05.363Z,1002.53
2016-05-10T08:37:05.366Z,1002.54
2016-05-10T08:38:05.338Z,1002.57
2016-05-10T08:39:05.324Z,1002.56
2016-05-10T08:40:05.296Z,1002.57
2016-05-10T08:41:05.283Z,1002.56
2016-05-10T08:42:05.254Z,1002.57
2016-05-10T08:43:05.273Z,1002.54
2016-05-10T08:44:05.229Z,1002.49
2016-05-10T08:45:05.216Z,1002.54
2016-05-10T08:46:05.187Z,1002.52
2016-05-10T08:47:05.174Z,1002.49
2016-05-10T08:48:05.162Z,1002.51
2016-05-10T08:49:05.133Z,1002.5
2016-05-10T08:50:05.167Z,1002.52
2016-05-10T08:51:05.092Z,1002.49
2016-05-10T08:52:05.095Z,1002.5
2016-05-10T08:53:05.051Z,1002.48
2016-05-10T08:54:05.053Z,1002.48
2016-05-10T08:55:05.040Z,1002.47
2016-05-10T08:56:05.012Z,1002.48
2016-05-10T08:57:04.998Z,1002.46
2016-05-10T08:58:05.095Z,1002.46
2016-05-10T08:59:04.972Z,1002.47
2016-05-10T09:00:04.928Z,1002.44
2016-05-10T09:01:04.915Z,1002.41
2016-05-10T09:02:05.261Z,1002.42
2016-05-10T09:03:04.874Z,1002.41
2016-05-10T09:04:04.860Z,1002.44
2016-05-10T09:05:04.847Z,1002.4
2016-05-10T09:06:04.836Z,1002.42
2016-05-10T09:07:04.806Z,1002.4
2016-05-10T09:08:04.809Z,1002.38
2016-05-10T09:09:04.781Z,1002.41
2016-05-10T09:10:04.752Z,1002.38
2016-05-10T09:11:04.739Z,1002.37
2016-05-10T09:12:05.289Z,1002.39
2016-05-10T09:13:04.729Z,1002.39
2016-05-10T09:14:04.700Z,1002.35
2016-05-10T09:15:04.672Z,1002.37
2016-05-10T09:16:04.643Z,1002.33
2016-05-10T09:17:04.646Z,1002.42
2016-05-10T09:18:04.633Z,1002.38
2016-05-10T09:19:04.657Z,1002.39
2016-05-10T09:20:04.670Z,1002.38
2016-05-10T09:21:05.386Z,1002.39
2016-05-10T09:22:05.149Z,1002.37
2016-05-10T09:23:04.818Z,1002.39
2016-05-10T09:24:04.947Z,1002.35
2016-05-10T09:25:04.856Z,1002.34
2016-05-10T09:26:04.733Z,1002.31
2016-05-10T09:27:04.720Z,1002.34
2016-05-10T09:28:04.768Z,1002.32
2016-05-10T09:29:04.715Z,1002.32
2016-05-10T09:30:04.708Z,1002.32
2016-05-10T09:31:04.700Z,1002.3
2016-05-10T09:32:04.693Z,1002.3
2016-05-10T09:33:04.669Z,1002.27
2016-05-10T09:34:04.878Z,1002.24
2016-05-10T09:35:04.663Z,1002.22
2016-05-10T09:36:04.652Z,1002.23
2016-05-10T09:37:04.594Z,1002.27
2016-05-10T09:38:04.693Z,1002.21
2016-05-10T09:39:04.586Z,1002.25
2016-05-10T09:40:04.622Z,1002.23
2016-05-10T09:41:04.547Z,1002.2
2016-05-10T09:42:04.519Z,1002.21
2016-05-10T09:43:04.523Z,1002.15
2016-05-10T09:44:04.494Z,1002.15
2016-05-10T09:45:04.686Z,1002.16
2016-05-10T09:46:04.469Z,1002.12
2016-05-10T09:47:04.473Z,1002.14
2016-05-10T09:48:04.445Z,1002.11
2016-05-10T09:49:04.431Z,1002.12
2016-05-10T09:50:04.575Z,1002.09
2016-05-10T09:51:04.389Z,1002.12
2016-05-10T09:52:04.345Z,1002.12
2016-05-10T09:53:04.379Z,1002.08
2016-05-10T09:54:04.320Z,1002.08
2016-05-10T09:55:04.369Z,1002.08
2016-05-10T09:56:04.294Z,1002.06
2016-05-10T09:57:04.359Z,1002.06
2016-05-10T09:58:04.252Z,1002.11
2016-05-10T09:59:04.256Z,1002.06
2016-05-10T10:00:04.227Z,1002.03
2016-05-10T10:01:04.198Z,1002.03
2016-05-10T10:02:04.232Z,1002
2016-05-10T10:03:04.219Z,1002.05
2016-05-10T10:04:04.159Z,1002.03
2016-05-10T10:05:04.146Z,1002.02
2016-05-10T10:06:04.149Z,1002.01
2016-05-10T10:07:04.167Z,1001.99
2016-05-10T10:08:04.091Z,1001.97
2016-05-10T10:09:04.064Z,1001.93
2016-05-10T10:10:04.066Z,1001.95
2016-05-10T10:11:04.053Z,1002.03
2016-05-10T10:12:04.041Z,1002.01
2016-05-10T10:13:04.121Z,1001.96
2016-05-10T10:14:03.999Z,1001.97
2016-05-10T10:15:03.985Z,1001.94
2016-05-10T10:16:03.973Z,1001.97
2016-05-10T10:17:03.929Z,1001.92
2016-05-10T10:18:03.915Z,1001.96
2016-05-10T10:19:03.918Z,1001.93
2016-05-10T10:20:03.905Z,1001.98
2016-05-10T10:21:03.893Z,1001.92
2016-05-10T10:22:03.848Z,1001.92
2016-05-10T10:23:03.820Z,1001.88
2016-05-10T10:24:03.837Z,1001.86
2016-05-10T10:25:03.810Z,1001.89
2016-05-10T10:26:03.781Z,1001.85
2016-05-10T10:27:03.784Z,1001.87
2016-05-10T10:28:03.756Z,1001.85
2016-05-10T10:29:03.726Z,1001.86
2016-05-10T10:30:03.729Z,1001.82
2016-05-10T10:31:03.716Z,1001.82
2016-05-10T10:32:03.688Z,1001.83
2016-05-10T10:33:03.894Z,1001.85
2016-05-10T10:34:03.677Z,1001.78
2016-05-10T10:35:03.664Z,1001.77
2016-05-10T10:36:03.636Z,1001.77
2016-05-10T10:37:03.622Z,1001.75
2016-05-10T10:38:03.594Z,1001.73
2016-05-10T10:39:03.582Z,1001.7
2016-05-10T10:40:03.568Z,1001.73
2016-05-10T10:41:03.556Z,1001.7
2016-05-10T10:42:03.543Z,1001.67
2016-05-10T10:43:03.514Z,1001.66
2016-05-10T10:44:03.517Z,1001.67
2016-05-10T10:45:03.488Z,1001.67
2016-05-10T10:46:03.476Z,1001.64
2016-05-10T10:47:03.463Z,1001.68
2016-05-10T10:48:03.449Z,1001.66
2016-05-10T10:49:03.420Z,1001.64
2016-05-10T10:50:03.408Z,1001.64
2016-05-10T10:51:03.396Z,1001.63
2016-05-10T10:52:03.367Z,1001.61
2016-05-10T10:53:03.354Z,1001.57
2016-05-10T10:54:03.356Z,1001.59
2016-05-10T10:55:03.328Z,1001.56
2016-05-10T10:56:03.298Z,1001.54
2016-05-10T10:57:03.301Z,1001.55
2016-05-10T10:58:03.258Z,1001.56
2016-05-10T10:59:03.261Z,1001.55
2016-05-10T11:00:03.982Z,1001.52
2016-05-10T11:01:03.219Z,1001.47
2016-05-10T11:02:03.612Z,1001.49
2016-05-10T11:03:03.193Z,1001.5
2016-05-10T11:04:03.181Z,1001.5
2016-05-10T11:05:03.167Z,1001.45
2016-05-10T11:06:03.155Z,1001.46
2016-05-10T11:07:03.125Z,1001.44
2016-05-10T11:08:03.097Z,1001.45
2016-05-10T11:09:03.115Z,1001.43
2016-05-10T11:10:03.086Z,1001.46
2016-05-10T11:11:03.105Z,1001.39
2016-05-10T11:12:03.046Z,1001.42
2016-05-10T11:13:03.048Z,1001.39
2016-05-10T11:14:03.019Z,1001.43
2016-05-10T11:15:03.335Z,1001.48
2016-05-10T11:16:03.102Z,1001.45
2016-05-10T11:17:02.965Z,1001.45
2016-05-10T11:18:02.968Z,1001.46
2016-05-10T11:19:02.924Z,1001.43
2016-05-10T11:20:03.035Z,1001.46
2016-05-10T11:21:02.913Z,1001.47
2016-05-10T11:22:03.041Z,1001.43
2016-05-10T11:23:02.888Z,1001.42
2016-05-10T11:24:02.843Z,1001.45
2016-05-10T11:25:03.065Z,1001.42
2016-05-10T11:26:02.818Z,1001.43
2016-05-10T11:27:02.804Z,1001.37
2016-05-10T11:28:02.776Z,1001.44
2016-05-10T11:29:02.763Z,1001.45
2016-05-10T11:30:02.765Z,1001.46
2016-05-10T11:31:02.753Z,1001.41
2016-05-10T11:32:02.739Z,1001.45
2016-05-10T11:33:02.727Z,1001.39
2016-05-10T11:34:02.682Z,1001.41
2016-05-10T11:35:02.669Z,1001.39
2016-05-10T11:36:02.656Z,1001.36
2016-05-10T11:37:02.644Z,1001.35
2016-05-10T11:38:02.630Z,1001.35
2016-05-10T11:39:02.618Z,1001.36
2016-05-10T11:40:02.605Z,1001.34
2016-05-10T11:41:02.608Z,1001.32
2016-05-10T11:42:02.564Z,1001.32
2016-05-10T11:43:02.550Z,1001.38
2016-05-10T11:44:02.521Z,1001.31
2016-05-10T11:45:02.525Z,1001.32
2016-05-10T11:46:02.513Z,1001.35
2016-05-10T11:47:02.483Z,1001.31
2016-05-10T11:48:02.768Z,1001.36
2016-05-10T11:49:02.457Z,1001.3
2016-05-10T11:50:02.444Z,1001.27
2016-05-10T11:51:02.416Z,1001.26
2016-05-10T11:52:02.403Z,1001.23
2016-05-10T11:53:02.390Z,1001.22
2016-05-10T11:54:02.393Z,1001.23
2016-05-10T11:55:02.364Z,1001.28
2016-05-10T11:56:02.351Z,1001.23
2016-05-10T11:57:02.354Z,1001.25
2016-05-10T11:58:02.325Z,1001.25
2016-05-10T11:59:02.312Z,1001.27
2016-05-10T12:00:02.440Z,1001.21
2016-05-10T12:01:02.270Z,1001.18
2016-05-10T12:02:02.289Z,1001.16
2016-05-10T12:03:02.244Z,1001.19
2016-05-10T12:04:02.216Z,1001.17
2016-05-10T12:05:02.203Z,1001.17
2016-05-10T12:06:02.347Z,1001.18
2016-05-10T12:07:02.162Z,1001.14
2016-05-10T12:08:02.164Z,1001.12
2016-05-10T12:09:02.136Z,1001.12
2016-05-10T12:10:02.139Z,1001.06